Time;durP1;ratioP1;P1;durP2;ratioP2;P2;SDS_P1;SDS_P2;PMS_P1;PMS_P2;Temp;Humidity;BMP_temperature;BMP_pressure;BME280_temperature;BME280_humidity;BME280_pressure;Samples;Min_cycle;Max_cycle;Signal;HPM_P1;HPM_P2
2022/02/24 00:00:14;;;;;;;6.25;3.40;;;;;;;7.86;54.00;100147.81;5052986;28;20055;-38
2022/02/24 00:02:41;;;;;;;7.88;3.50;;;;;;;7.89;53.79;100158.09;5053071;28;20017;-37
2022/02/24 00:05:07;;;;;;;7.38;3.30;;;;;;;7.89;53.70;100149.31;5053243;28;20029;-38
2022/02/24 00:07:32;;;;;;;5.65;3.10;;;;;;;7.93;53.42;100148.78;5052981;28;20029;-37
2022/02/24 00:09:58;;;;;;;5.97;3.00;;;;;;;7.89;53.44;100138.72;5071001;28;20020;-37
2022/02/24 00:12:23;;;;;;;7.15;3.00;;;;;;;7.96;53.38;100143.13;5073076;28;20080;-38
2022/02/24 00:14:50;;;;;;;8.80;3.60;;;;;;;7.85;53.59;100138.25;5073234;28;20028;-37
2022/02/24 00:17:15;;;;;;;5.05;2.80;;;;;;;7.72;54.47;100133.50;5073063;28;20059;-37
2022/02/24 00:19:41;;;;;;;5.53;3.05;;;;;;;7.90;53.93;100125.28;5072786;28;20048;-38
2022/02/24 00:22:06;;;;;;;8.98;3.03;;;;;;;7.95;53.44;100130.88;5072628;28;20166;-37
2022/02/24 00:24:32;;;;;;;8.10;3.42;;;;;;;7.69;54.52;100130.38;5072960;28;20027;-37
2022/02/24 00:26:57;;;;;;;6.32;3.10;;;;;;;7.63;54.74;100129.25;5072986;28;20104;-37
2022/02/24 00:29:23;;;;;;;5.88;2.90;;;;;;;7.44;54.92;100127.88;5072755;28;20028;-37
2022/02/24 00:31:48;;;;;;;6.32;3.08;;;;;;;7.36;54.79;100123.44;5072855;28;20020;-37
2022/02/24 00:34:15;;;;;;;5.35;3.00;;;;;;;7.48;53.97;100123.06;5072627;28;20032;-37
2022/02/24 00:36:41;;;;;;;5.70;3.20;;;;;;;7.54;54.12;100122.34;5072845;28;20028;-38
2022/02/24 00:39:07;;;;;;;7.35;3.15;;;;;;;7.49;54.63;100117.59;5072231;28;20020;-37
2022/02/24 00:41:32;;;;;;;6.70;3.50;;;;;;;7.64;53.39;100126.44;5072094;28;20101;-37
2022/02/24 00:43:58;;;;;;;5.78;3.45;;;;;;;7.41;54.71;100120.28;5072431;28;20059;-37
2022/02/24 00:46:23;;;;;;;5.82;3.40;;;;;;;7.63;53.69;100116.88;5071971;28;20039;-37
2022/02/24 00:48:48;;;;;;;8.23;3.63;;;;;;;7.90;53.02;100116.50;5072140;28;20020;-37
2022/02/24 00:51:14;;;;;;;5.28;3.33;;;;;;;7.86;52.90;100118.66;5071765;28;20021;-37
2022/02/24 00:53:41;;;;;;;7.22;3.50;;;;;;;7.58;54.04;100121.03;5071774;28;20024;-37
2022/02/24 00:56:09;;;;;;;6.63;3.65;;;;;;;7.69;53.46;100115.34;5071328;28;20032;-37
2022/02/24 00:58:35;;;;;;;5.55;3.40;;;;;;;7.60;53.48;100121.69;5071349;28;20024;-37
2022/02/24 01:01:00;;;;;;;7.13;3.97;;;;;;;7.51;53.84;100123.53;5071179;28;20503;-37
2022/02/24 01:03:26;;;;;;;6.88;3.90;;;;;;;7.43;54.38;100118.28;5071365;28;20035;-38
2022/02/24 01:05:51;;;;;;;4.95;3.22;;;;;;;7.34;54.72;100120.16;5053574;28;20035;-37
2022/02/24 01:08:17;;;;;;;5.82;4.10;;;;;;;7.43;54.29;100116.47;5071138;28;20012;-37
2022/02/24 01:10:42;;;;;;;8.27;3.97;;;;;;;7.33;54.35;100105.28;5071087;28;20028;-37
2022/02/24 01:13:08;;;;;;;6.90;3.92;;;;;;;7.43;54.24;100097.94;5071502;28;20519;-37
2022/02/24 01:15:38;;;;;;;7.53;3.90;;;;;;;7.71;53.71;100101.88;5071478;28;20089;-37
2022/02/24 01:18:04;;;;;;;5.75;3.78;;;;;;;7.74;53.37;100112.16;5071304;28;20028;-38
2022/02/24 01:20:29;;;;;;;6.97;4.00;;;;;;;7.72;53.29;100101.72;5071210;28;20052;-38
2022/02/24 01:22:55;;;;;;;6.97;3.80;;;;;;;7.47;54.51;100106.34;5073345;28;20067;-37
2022/02/24 01:25:21;;;;;;;6.97;4.30;;;;;;;7.28;55.05;100096.19;5071548;28;20036;-37
2022/02/24 01:27:47;;;;;;;7.30;4.10;;;;;;;7.54;54.17;100098.53;5071044;28;20104;-37
2022/02/24 01:30:13;;;;;;;7.07;4.35;;;;;;;7.52;53.95;100100.53;5071193;28;20479;-36
2022/02/24 01:32:38;;;;;;;7.38;4.25;;;;;;;7.20;54.85;100095.25;5070960;28;20020;-37
2022/02/24 01:35:04;;;;;;;7.20;4.20;;;;;;;7.38;54.38;100100.25;5071004;28;20028;-37
2022/02/24 01:37:29;;;;;;;7.75;4.03;;;;;;;7.02;55.30;100092.81;5070654;28;20542;-37
2022/02/24 01:39:55;;;;;;;7.85;4.32;;;;;;;7.25;54.64;100089.41;5070621;28;20302;-36
2022/02/24 01:42:20;;;;;;;8.32;4.20;;;;;;;7.27;54.88;100086.59;5070312;28;20027;-37
2022/02/24 01:44:46;;;;;;;6.95;4.40;;;;;;;7.21;54.68;100094.22;5069121;28;20047;-37
2022/02/24 01:47:12;;;;;;;8.57;4.13;;;;;;;7.14;54.83;100084.50;5070622;28;20111;-36
2022/02/24 01:49:38;;;;;;;10.07;4.32;;;;;;;7.04;54.98;100098.78;5070747;28;20100;-37
2022/02/24 01:52:05;;;;;;;7.88;4.45;;;;;;;7.16;54.80;100106.31;5070666;28;20027;-38
2022/02/24 01:54:33;;;;;;;5.88;3.72;;;;;;;7.08;54.97;100088.66;5070691;28;20106;-38
2022/02/24 01:56:58;;;;;;;8.95;4.28;;;;;;;7.08;55.52;100090.50;5070949;28;20034;-37
2022/02/24 01:59:24;;;;;;;8.60;4.40;;;;;;;7.01;56.05;100093.81;5070815;28;20419;-37
2022/02/24 02:01:49;;;;;;;6.97;4.03;;;;;;;7.07;55.66;100100.25;5070823;28;20388;-37
2022/02/24 02:04:15;;;;;;;6.93;4.25;;;;;;;7.04;55.76;100096.16;5070639;28;20626;-37
2022/02/24 02:06:40;;;;;;;8.40;4.15;;;;;;;6.81;55.84;100098.69;5070241;28;20017;-37
2022/02/24 02:09:06;;;;;;;7.30;4.50;;;;;;;7.06;55.73;100101.25;5059165;28;20025;-37
2022/02/24 02:11:31;;;;;;;10.82;4.43;;;;;;;7.30;55.25;100097.66;5053697;28;20021;-37
2022/02/24 02:13:57;;;;;;;9.18;4.70;;;;;;;7.24;55.62;100093.06;5054719;28;20036;-37
2022/02/24 02:16:23;;;;;;;9.07;4.22;;;;;;;7.35;55.10;100089.19;5054879;28;20029;-37
2022/02/24 02:18:48;;;;;;;6.10;4.47;;;;;;;7.24;55.67;100104.47;5054559;28;20032;-36
2022/02/24 02:21:14;;;;;;;7.43;3.88;;;;;;;6.96;55.89;100098.00;5054134;28;20024;-37
2022/02/24 02:23:39;;;;;;;8.35;3.97;;;;;;;7.10;56.09;100094.63;5054719;28;20086;-38
2022/02/24 02:26:05;;;;;;;9.00;4.13;;;;;;;7.31;55.85;100104.63;5054938;28;20074;-38
2022/02/24 02:28:30;;;;;;;10.73;4.13;;;;;;;7.33;55.00;100112.38;5054161;28;20025;-37
2022/02/24 02:30:56;;;;;;;9.13;3.63;;;;;;;7.04;56.64;100112.03;5054046;28;20025;-38
2022/02/24 02:33:21;;;;;;;5.65;3.88;;;;;;;7.15;56.04;100123.22;5054129;28;20024;-38
2022/02/24 02:35:47;;;;;;;5.85;3.92;;;;;;;7.12;56.26;100120.91;5054218;28;20390;-37
2022/02/24 02:38:12;;;;;;;7.55;4.00;;;;;;;7.05;56.29;100123.44;5054273;28;20032;-37
2022/02/24 02:40:38;;;;;;;8.52;3.95;;;;;;;7.19;55.93;100125.34;5054522;28;20408;-38
2022/02/24 02:43:07;;;;;;;6.97;3.47;;;;;;;7.13;55.89;100125.22;5054222;28;20036;-37
2022/02/24 02:45:32;;;;;;;6.25;3.65;;;;;;;7.14;55.86;100129.50;5054122;28;20025;-37
2022/02/24 02:47:59;;;;;;;7.72;3.80;;;;;;;7.13;55.91;100128.69;5054292;28;20032;-37
2022/02/24 02:50:25;;;;;;;9.60;3.65;;;;;;;7.04;55.86;100124.41;5053986;28;20029;-37
2022/02/24 02:52:51;;;;;;;9.57;3.60;;;;;;;7.01;55.97;100125.59;5054521;28;20036;-38
2022/02/24 02:55:17;;;;;;;7.72;3.60;;;;;;;6.77;56.45;100133.59;5054101;28;20013;-38
2022/02/24 02:57:42;;;;;;;6.80;3.40;;;;;;;6.89;56.12;100124.28;5036438;28;20428;-37
2022/02/24 03:00:10;;;;;;;12.38;3.40;;;;;;;7.20;55.52;100128.84;5054102;28;20025;-37
2022/02/24 03:02:36;;;;;;;7.72;3.10;;;;;;;7.14;55.64;100130.34;5036199;28;20350;-38
2022/02/24 03:05:01;;;;;;;6.78;3.47;;;;;;;7.08;55.19;100132.84;5036031;28;20033;-37
2022/02/24 03:07:27;;;;;;;7.45;3.40;;;;;;;7.11;55.00;100125.38;5053642;28;20373;-37
2022/02/24 03:09:52;;;;;;;8.65;3.30;;;;;;;6.95;55.17;100134.22;5071536;28;20016;-37
2022/02/24 03:12:18;;;;;;;9.85;3.38;;;;;;;6.83;55.81;100138.19;5055753;28;20025;-37
2022/02/24 03:14:44;;;;;;;6.03;3.10;;;;;;;6.95;55.74;100128.91;5073939;28;20496;-37
2022/02/24 03:17:09;;;;;;;7.55;3.22;;;;;;;7.02;55.31;100137.00;5073543;28;20020;-38
2022/02/24 03:19:35;;;;;;;5.10;3.30;;;;;;;7.02;54.98;100132.50;5073953;28;20031;-38
2022/02/24 03:22:01;;;;;;;6.45;3.30;;;;;;;7.03;54.86;100136.00;5055481;28;20044;-37
2022/02/24 03:24:26;;;;;;;11.25;4.03;;;;;;;6.94;55.39;100143.13;5073800;28;20024;-37
2022/02/24 03:26:51;;;;;;;8.77;3.35;;;;;;;6.88;55.16;100141.16;5073641;28;20039;-38
2022/02/24 03:29:17;;;;;;;5.97;3.38;;;;;;;7.14;54.33;100145.38;5073769;28;20024;-37
2022/02/24 03:31:42;;;;;;;6.43;3.40;;;;;;;6.91;55.26;100146.13;5073691;28;20169;-37
2022/02/24 03:34:09;;;;;;;8.85;3.10;;;;;;;7.11;54.76;100153.69;5073536;28;20035;-37
2022/02/24 03:36:34;;;;;;;11.32;3.65;;;;;;;6.88;55.76;100143.81;5055739;28;20049;-37
2022/02/24 03:39:00;;;;;;;7.18;3.22;;;;;;;6.98;55.47;100143.63;5073355;28;20483;-38
2022/02/24 03:41:25;;;;;;;7.82;3.67;;;;;;;6.83;55.78;100141.69;5073450;28;20031;-38
2022/02/24 03:43:53;;;;;;;8.02;3.38;;;;;;;6.75;56.38;100154.91;5073194;28;20546;-38
2022/02/24 03:46:21;;;;;;;7.57;3.60;;;;;;;6.57;56.45;100151.66;5073564;28;20029;-38
2022/02/24 03:48:50;;;;;;;8.63;3.30;;;;;;;6.61;56.49;100147.69;5073110;28;20024;-38
2022/02/24 03:51:16;;;;;;;6.95;3.20;;;;;;;6.64;55.79;100150.81;5073315;28;20033;-37
2022/02/24 03:53:42;;;;;;;8.60;3.28;;;;;;;6.49;57.04;100157.75;5073073;28;20025;-37
2022/02/24 03:56:07;;;;;;;5.85;2.90;;;;;;;6.58;56.20;100156.75;5073060;28;20028;-37
2022/02/24 03:58:33;;;;;;;6.38;3.40;;;;;;;6.80;55.97;100159.72;5073265;28;20032;-38
2022/02/24 04:00:58;;;;;;;9.55;3.40;;;;;;;6.82;56.26;100153.25;5072953;28;20503;-37
2022/02/24 04:03:24;;;;;;;7.13;3.30;;;;;;;6.84;55.20;100168.97;5072920;28;20028;-37
2022/02/24 04:05:49;;;;;;;9.50;3.78;;;;;;;6.95;55.24;100162.47;5073367;28;20090;-38
2022/02/24 04:08:15;;;;;;;7.30;3.63;;;;;;;6.62;56.62;100166.00;5072681;28;20461;-37
2022/02/24 04:10:40;;;;;;;4.88;3.10;;;;;;;6.73;55.93;100170.13;5072860;28;20174;-37
2022/02/24 04:13:05;;;;;;;4.93;3.28;;;;;;;6.80;55.34;100171.13;5072654;28;20403;-37
2022/02/24 04:15:31;;;;;;;10.32;3.35;;;;;;;6.92;55.62;100161.00;5072575;28;20383;-37
2022/02/24 04:17:56;;;;;;;8.77;3.13;;;;;;;6.76;55.59;100175.09;5072622;28;20089;-38
2022/02/24 04:20:22;;;;;;;6.53;3.10;;;;;;;7.01;55.07;100175.06;5072574;28;20055;-36
2022/02/24 04:22:47;;;;;;;8.10;3.63;;;;;;;6.93;55.36;100167.09;5072535;28;20048;-37
2022/02/24 04:25:13;;;;;;;13.32;6.53;;;;;;;6.95;55.35;100173.06;5072589;28;20054;-38
2022/02/24 04:27:46;;;;;;;22.25;9.77;;;;;;;6.64;56.37;100179.91;5072626;28;20035;-38
2022/02/24 04:30:11;;;;;;;26.00;14.27;;;;;;;6.70;56.07;100189.00;5072806;28;20074;-38
2022/02/24 04:32:37;;;;;;;34.53;16.48;;;;;;;6.78;55.79;100180.22;5071632;28;20451;-38
2022/02/24 04:35:03;;;;;;;7.05;3.10;;;;;;;6.63;56.60;100182.72;5072016;28;20649;-38
2022/02/24 04:37:28;;;;;;;5.00;2.53;;;;;;;6.48;56.64;100190.50;5072498;28;20027;-38
2022/02/24 04:39:54;;;;;;;4.00;2.30;;;;;;;6.41;57.36;100192.13;5072424;28;20043;-37
2022/02/24 04:42:19;;;;;;;2.85;2.00;;;;;;;6.17;58.19;100198.22;5062229;28;20017;-37
2022/02/24 04:44:44;;;;;;;3.63;2.30;;;;;;;6.17;58.78;100192.94;5052164;28;20029;-37
2022/02/24 04:47:10;;;;;;;5.10;2.50;;;;;;;6.29;59.02;100199.56;5052116;28;20025;-37
2022/02/24 04:49:35;;;;;;;3.80;2.33;;;;;;;6.42;59.03;100191.16;5052143;28;20036;-37
2022/02/24 04:52:01;;;;;;;2.85;2.10;;;;;;;6.23;59.65;100208.16;5052052;28;20476;-37
2022/02/24 04:54:26;;;;;;;4.90;2.20;;;;;;;6.06;60.28;100204.69;5052105;28;20094;-37
2022/02/24 04:56:52;;;;;;;4.47;2.05;;;;;;;6.12;60.69;100204.03;5051882;28;20029;-37
2022/02/24 04:59:17;;;;;;;4.85;1.95;;;;;;;5.97;60.97;100195.06;5051831;28;20029;-37
2022/02/24 05:01:43;;;;;;;4.78;2.20;;;;;;;6.10;60.98;100202.53;5033964;28;20032;-37
2022/02/24 05:04:08;;;;;;;5.10;2.25;;;;;;;6.17;61.10;100206.16;5051664;28;20032;-37
2022/02/24 05:06:33;;;;;;;5.15;2.22;;;;;;;6.19;60.69;100210.31;5051659;28;20481;-38
2022/02/24 05:08:59;;;;;;;4.88;2.35;;;;;;;6.30;60.49;100214.44;5061796;28;20090;-37
2022/02/24 05:11:24;;;;;;;3.67;2.38;;;;;;;6.40;60.59;100222.22;5071421;28;20024;-37
2022/02/24 05:13:50;;;;;;;2.80;2.00;;;;;;;6.24;60.87;100223.88;5071361;28;20033;-37
2022/02/24 05:16:15;;;;;;;6.22;2.38;;;;;;;5.90;61.22;100221.28;5071366;28;20021;-38
2022/02/24 05:18:41;;;;;;;5.50;2.03;;;;;;;5.79;61.68;100232.97;5071308;28;20024;-37
2022/02/24 05:21:06;;;;;;;19.80;10.07;;;;;;;6.16;60.84;100236.22;5062884;28;20087;-38
2022/02/24 05:23:32;;;;;;;15.10;6.05;;;;;;;6.09;60.71;100243.97;5051038;28;20061;-38
2022/02/24 05:25:58;;;;;;;4.05;1.80;;;;;;;5.84;60.97;100235.94;5050652;28;20432;-38
2022/02/24 05:28:23;;;;;;;4.55;2.20;;;;;;;5.84;61.13;100241.22;5049128;28;20106;-38
2022/02/24 05:30:48;;;;;;;3.83;2.00;;;;;;;6.26;60.31;100247.47;5049980;28;20495;-38
2022/02/24 05:33:15;;;;;;;3.67;2.38;;;;;;;6.10;60.16;100245.63;5049627;28;20044;-38
2022/02/24 05:35:40;;;;;;;3.13;2.10;;;;;;;6.08;60.25;100252.91;5049467;28;20445;-37
2022/02/24 05:38:06;;;;;;;4.25;2.42;;;;;;;5.94;60.38;100256.97;5049920;28;20035;-38
2022/02/24 05:40:31;;;;;;;3.47;2.33;;;;;;;6.26;59.88;100269.47;5049700;28;20040;-38
2022/02/24 05:42:58;;;;;;;3.92;2.38;;;;;;;6.32;59.36;100273.28;5049562;28;20111;-38
2022/02/24 05:45:23;;;;;;;6.82;2.63;;;;;;;6.14;59.62;100273.38;5047835;28;20029;-37
2022/02/24 05:47:49;;;;;;;4.93;2.40;;;;;;;6.04;60.04;100278.81;5049885;28;20080;-38
2022/02/24 05:50:14;;;;;;;3.25;2.20;;;;;;;6.10;60.05;100276.53;5050000;28;20487;-37
2022/02/24 05:52:40;;;;;;;5.32;2.85;;;;;;;6.23;58.93;100285.63;5049725;28;20029;-37
2022/02/24 05:55:06;;;;;;;5.93;3.40;;;;;;;6.34;59.25;100288.94;5049642;28;20043;-38
2022/02/24 05:57:31;;;;;;;4.47;2.78;;;;;;;6.55;57.76;100297.25;5049420;28;20032;-38
2022/02/24 05:59:57;;;;;;;21.33;12.25;;;;;;;6.47;57.98;100299.88;5049573;28;20025;-38
2022/02/24 06:02:22;;;;;;;64.57;26.48;;;;;;;6.46;57.11;100299.06;5049443;28;20025;-38
2022/02/24 06:04:48;;;;;;;5.35;2.97;;;;;;;6.35;56.86;100309.13;5049720;28;20373;-37
2022/02/24 06:07:13;;;;;;;6.75;3.05;;;;;;;6.48;57.05;100308.66;5049608;28;20017;-37
2022/02/24 06:09:39;;;;;;;10.43;5.13;;;;;;;6.49;56.50;100318.22;5051570;28;20028;-38
2022/02/24 06:12:04;;;;;;;19.55;8.95;;;;;;;6.59;56.61;100325.03;5047748;28;20024;-38
2022/02/24 06:14:30;;;;;;;6.50;3.00;;;;;;;6.38;57.13;100322.84;5049449;28;20029;-38
2022/02/24 06:16:57;;;;;;;4.45;2.95;;;;;;;6.61;57.03;100323.06;5049234;28;20070;-37
2022/02/24 06:19:23;;;;;;;6.03;2.95;;;;;;;6.63;56.40;100314.97;5048985;28;20400;-37
2022/02/24 06:21:51;;;;;;;13.55;4.78;;;;;;;6.81;56.93;100328.03;5032540;28;20550;-38
2022/02/24 06:24:16;;;;;;;9.80;4.38;;;;;;;6.98;56.25;100334.16;5049332;28;20060;-37
2022/02/24 06:26:41;;;;;;;7.40;3.33;;;;;;;7.12;55.36;100330.84;5049521;28;20402;-38
2022/02/24 06:29:07;;;;;;;7.45;2.60;;;;;;;7.07;55.68;100334.97;5049419;28;20040;-38
2022/02/24 06:31:34;;;;;;;5.53;3.03;;;;;;;6.78;57.11;100338.94;5045385;28;20029;-38
2022/02/24 06:34:01;;;;;;;3.65;2.60;;;;;;;6.82;56.54;100348.22;5046791;28;20041;-37
2022/02/24 06:36:27;;;;;;;6.57;2.92;;;;;;;6.93;55.93;100352.31;5049056;28;20021;-38
2022/02/24 06:38:52;;;;;;;14.80;8.32;;;;;;;6.81;56.12;100352.66;5043383;28;20449;-37
2022/02/24 06:41:20;;;;;;;7.53;3.40;;;;;;;6.88;56.01;100352.84;5049047;28;20029;-37
2022/02/24 06:43:45;;;;;;;6.20;3.10;;;;;;;7.03;55.69;100361.78;5048444;28;20123;-38
2022/02/24 06:46:11;;;;;;;6.97;3.35;;;;;;;6.87;56.42;100359.09;5047955;28;20016;-38
2022/02/24 06:48:36;;;;;;;6.45;3.60;;;;;;;6.82;56.49;100367.53;5047418;28;20024;-37
2022/02/24 06:51:02;;;;;;;6.28;3.38;;;;;;;7.13;55.77;100368.72;5048888;28;20025;-39
2022/02/24 06:53:27;;;;;;;6.15;3.40;;;;;;;6.95;55.68;100364.41;5048111;28;20032;-36
2022/02/24 06:55:53;;;;;;;11.85;6.05;;;;;;;7.08;55.38;100371.84;5048049;28;20016;-38
2022/02/24 06:58:18;;;;;;;9.30;4.25;;;;;;;7.15;56.18;100372.03;5052081;28;20017;-37
2022/02/24 07:00:44;;;;;;;5.72;3.00;;;;;;;7.09;54.98;100376.16;5053938;28;20103;-37
2022/02/24 07:03:09;;;;;;;6.05;3.30;;;;;;;7.09;55.63;100388.59;5059975;28;20496;-38
2022/02/24 07:05:35;;;;;;;5.72;3.70;;;;;;;7.06;55.00;100395.00;5061334;28;20009;-39
2022/02/24 07:08:02;;;;;;;7.15;3.47;;;;;;;6.97;55.21;100399.47;5055841;28;20699;-37
2022/02/24 07:10:27;;;;;;;9.43;3.97;;;;;;;7.08;55.18;100394.84;5063060;28;20028;-37
2022/02/24 07:12:53;;;;;;;6.88;3.80;;;;;;;7.16;54.63;100405.44;5065139;28;20021;-37
2022/02/24 07:15:18;;;;;;;6.50;3.75;;;;;;;7.18;54.34;100404.28;5062560;28;20027;-37
2022/02/24 07:17:45;;;;;;;6.93;4.20;;;;;;;7.43;54.17;100413.06;5053410;28;20098;-37
2022/02/24 07:20:11;;;;;;;7.50;4.50;;;;;;;7.28;53.84;100411.25;5052794;28;20103;-39
2022/02/24 07:22:37;;;;;;;7.50;4.35;;;;;;;7.38;53.76;100404.78;5052520;28;20049;-37
2022/02/24 07:25:03;;;;;;;7.25;3.90;;;;;;;7.50;54.16;100415.88;5052748;28;20025;-37
2022/02/24 07:27:28;;;;;;;7.20;3.60;;;;;;;7.26;54.57;100411.41;5052423;28;20017;-38
2022/02/24 07:29:54;;;;;;;7.97;3.95;;;;;;;7.52;54.08;100418.34;5052605;28;20345;-37
2022/02/24 07:32:19;;;;;;;6.82;3.67;;;;;;;7.43;54.55;100415.69;5052669;28;20025;-38
2022/02/24 07:34:45;;;;;;;8.50;3.80;;;;;;;7.59;54.04;100422.78;5052700;28;20033;-37
2022/02/24 07:37:11;;;;;;;5.43;3.55;;;;;;;7.71;53.74;100428.59;5051904;28;20021;-38
2022/02/24 07:39:37;;;;;;;11.02;6.65;;;;;;;7.69;53.62;100433.25;5051051;28;20082;-38
2022/02/24 07:42:03;;;;;;;9.68;4.28;;;;;;;7.75;53.08;100432.56;5051524;28;20396;-37
2022/02/24 07:44:28;;;;;;;7.40;4.78;;;;;;;7.73;53.54;100429.25;5051510;28;20036;-37
2022/02/24 07:46:54;;;;;;;8.23;4.28;;;;;;;7.63;53.50;100432.09;5034135;28;20087;-37
2022/02/24 07:49:22;;;;;;;10.27;4.38;;;;;;;7.83;53.26;100431.72;5051407;28;20150;-37
2022/02/24 07:51:51;;;;;;;10.55;4.28;;;;;;;7.70;53.55;100431.41;5051544;28;20021;-37
2022/02/24 07:54:17;;;;;;;10.82;4.53;;;;;;;7.72;53.93;100429.41;5051300;28;20021;-37
2022/02/24 07:56:43;;;;;;;6.10;3.53;;;;;;;7.74;53.35;100435.38;5051087;28;20021;-38
2022/02/24 07:59:08;;;;;;;7.70;4.57;;;;;;;7.97;53.07;100430.19;5051189;28;20036;-39
2022/02/24 08:01:34;;;;;;;10.07;5.75;;;;;;;7.86;53.24;100438.50;5051324;28;20029;-38
2022/02/24 08:03:59;;;;;;;6.72;4.40;;;;;;;7.90;53.31;100437.16;5051249;28;20063;-38
2022/02/24 08:06:25;;;;;;;7.47;4.25;;;;;;;7.87;53.29;100413.66;5051250;28;20400;-39
2022/02/24 08:08:52;;;;;;;8.80;4.05;;;;;;;7.98;53.40;100434.50;5058938;28;20031;-38
2022/02/24 08:11:17;;;;;;;9.35;4.00;;;;;;;8.10;53.17;100433.13;5052882;28;20056;-37
2022/02/24 08:13:43;;;;;;;10.40;3.95;;;;;;;8.05;53.31;100435.47;5071481;28;20477;-38
2022/02/24 08:16:08;;;;;;;7.82;3.88;;;;;;;8.15;52.44;100430.81;5072131;28;20032;-39
2022/02/24 08:18:34;;;;;;;8.27;3.80;;;;;;;8.16;51.68;100435.09;5070543;28;20024;-38
2022/02/24 08:20:59;;;;;;;6.40;3.35;;;;;;;8.13;51.06;100427.50;5069667;28;20024;-37
2022/02/24 08:23:25;;;;;;;5.25;3.08;;;;;;;8.25;50.80;100443.88;5069858;28;20086;-41
2022/02/24 08:25:50;;;;;;;4.55;2.70;;;;;;;8.55;49.19;100436.16;5070793;28;20367;-38
2022/02/24 08:28:16;;;;;;;4.75;2.30;;;;;;;7.69;50.01;100435.03;5052724;28;20485;-38
2022/02/24 08:30:41;;;;;;;3.28;2.42;;;;;;;7.94;49.54;100431.38;5051084;28;20029;-37
2022/02/24 08:33:07;;;;;;;4.75;2.50;;;;;;;8.17;50.03;100428.00;5051079;28;20021;-38
2022/02/24 08:35:33;;;;;;;5.78;3.33;;;;;;;8.26;50.21;100437.53;5051123;28;20025;-38
2022/02/24 08:38:00;;;;;;;7.40;3.70;;;;;;;8.52;49.55;100439.97;5050680;28;20269;-38
2022/02/24 08:40:25;;;;;;;7.72;3.55;;;;;;;8.66;48.69;100440.22;5049434;28;20388;-49
2022/02/24 08:42:51;;;;;;;5.10;3.00;;;;;;;8.84;49.00;100442.63;5049616;28;20013;-48
2022/02/24 08:45:18;;;;;;;5.18;2.72;;;;;;;8.74;48.43;100443.69;5049593;28;20234;-37
2022/02/24 08:47:43;;;;;;;5.50;2.65;;;;;;;8.41;49.28;100451.81;5049155;28;20043;-51
2022/02/24 08:50:10;;;;;;;8.13;3.22;;;;;;;8.69;49.50;100447.84;5049172;28;20477;-38
2022/02/24 08:52:36;;;;;;;5.55;2.92;;;;;;;8.84;49.01;100447.94;5050010;28;20025;-48
2022/02/24 08:55:01;;;;;;;5.47;3.03;;;;;;;9.05;49.33;100455.28;5032886;28;20345;-50
2022/02/24 08:57:26;;;;;;;3.83;2.60;;;;;;;9.18;48.36;100461.66;5050775;28;20021;-38
2022/02/24 08:59:52;;;;;;;3.70;2.20;;;;;;;9.28;48.36;100456.09;5050814;28;20032;-48
2022/02/24 09:02:18;;;;;;;2.35;1.90;;;;;;;8.75;49.08;100457.78;5050374;28;20025;-47
2022/02/24 09:04:43;;;;;;;3.42;2.33;;;;;;;8.66;50.00;100453.50;5033002;28;20052;-38
2022/02/24 09:07:09;;;;;;;4.22;2.10;;;;;;;8.88;49.29;100450.06;5050858;28;20079;-37
2022/02/24 09:09:34;;;;;;;2.75;2.20;;;;;;;9.17;49.41;100453.84;5050816;28;20114;-37
2022/02/24 09:12:01;;;;;;;5.53;2.92;;;;;;;9.41;49.30;100455.50;5050684;28;20480;-36
2022/02/24 09:14:27;;;;;;;4.57;2.22;;;;;;;9.37;48.41;100455.03;5050610;28;20029;-49
2022/02/24 09:16:52;;;;;;;4.10;1.95;;;;;;;9.02;48.71;100455.63;5050655;28;20025;-52
2022/02/24 09:19:18;;;;;;;3.55;2.08;;;;;;;9.29;48.39;100459.56;5050737;28;20029;-38
2022/02/24 09:21:43;;;;;;;4.78;2.05;;;;;;;9.23;48.37;100447.00;5050655;28;20064;-38
2022/02/24 09:24:09;;;;;;;4.22;1.98;;;;;;;8.88;49.38;100449.25;5050556;28;20039;-37
2022/02/24 09:26:34;;;;;;;3.38;1.98;;;;;;;9.21;48.81;100452.50;5050528;28;20098;-38
2022/02/24 09:29:01;;;;;;;3.85;2.30;;;;;;;9.45;48.66;100450.69;5050448;28;20024;-38
2022/02/24 09:31:27;;;;;;;3.78;2.20;;;;;;;9.47;48.83;100454.78;5050522;28;20029;-38
2022/02/24 09:33:52;;;;;;;5.18;2.13;;;;;;;8.99;48.83;100462.13;5050878;28;20036;-38
2022/02/24 09:36:18;;;;;;;2.55;1.90;;;;;;;9.22;47.78;100459.47;5050651;28;20035;-38
2022/02/24 09:38:43;;;;;;;3.03;1.90;;;;;;;9.18;48.24;100451.03;5050484;28;20488;-38
2022/02/24 09:41:11;;;;;;;3.97;2.08;;;;;;;9.28;48.22;100453.44;5050752;28;20065;-38
2022/02/24 09:43:36;;;;;;;4.75;1.92;;;;;;;9.50;47.73;100442.97;5050344;28;20025;-38
2022/02/24 09:46:07;;;;;;;4.78;2.47;;;;;;;9.51;48.27;100449.94;5050612;28;20082;-37
2022/02/24 09:48:33;;;;;;;3.22;2.13;;;;;;;9.63;47.79;100447.69;5032576;28;20028;-37
2022/02/24 09:51:00;;;;;;;2.75;2.00;;;;;;;9.93;46.80;100449.38;5050250;28;20514;-38
2022/02/24 09:53:30;;;;;;;4.93;2.20;;;;;;;9.85;47.25;100449.47;5050149;28;20033;-37
2022/02/24 09:55:56;;;;;;;6.00;2.88;;;;;;;9.60;47.38;100448.88;5050416;28;20021;-37
2022/02/24 09:58:22;;;;;;;3.67;2.60;;;;;;;9.46;46.67;100452.31;5050187;28;20029;-37
2022/02/24 10:00:48;;;;;;;3.72;2.25;;;;;;;10.05;45.85;100452.44;5050177;28;20029;-38
2022/02/24 10:03:29;;;;;;;4.70;2.63;;;;;;;10.16;44.99;100443.97;5050120;28;20112;-38
2022/02/24 10:05:54;;;;;;;3.38;2.00;;;;;;;9.75;45.39;100438.28;5032261;28;20062;-38
2022/02/24 10:08:33;;;;;;;2.80;2.03;;;;;;;9.55;45.60;100435.28;5050015;28;20067;-38
2022/02/24 10:11:00;;;;;;;3.15;2.20;;;;;;;9.27;46.66;100435.88;5050101;28;20060;-37
2022/02/24 10:13:25;;;;;;;2.70;2.10;;;;;;;9.25;47.22;100429.88;5050433;28;20396;-38
2022/02/24 10:16:01;;;;;;;5.55;2.25;;;;;;;9.96;46.48;100433.06;5049668;28;20029;-38
2022/02/24 10:18:28;;;;;;;7.03;2.50;;;;;;;9.81;46.82;100436.72;5032201;28;20112;-37
2022/02/24 10:20:56;;;;;;;3.38;2.20;;;;;;;9.55;47.04;100429.97;5050559;28;20036;-37
2022/02/24 10:23:22;;;;;;;6.07;2.60;;;;;;;9.31;48.58;100431.84;5049997;28;20394;-38
2022/02/24 10:25:51;;;;;;;5.85;2.40;;;;;;;9.00;48.81;100434.56;5016138;28;20028;-38
2022/02/24 10:28:35;;;;;;;5.28;3.30;;;;;;;8.97;48.87;100438.41;5049830;28;20060;-38
2022/02/24 10:31:14;;;;;;;3.15;2.30;;;;;;;9.49;47.92;100436.03;5050876;28;20067;-38
2022/02/24 10:33:41;;;;;;;6.53;2.55;;;;;;;9.62;47.61;100427.44;5054229;28;20033;-38
2022/02/24 10:36:10;;;;;;;4.22;2.75;;;;;;;9.52;48.27;100425.88;5054052;28;20040;-37
2022/02/24 10:38:36;;;;;;;3.25;2.10;;;;;;;9.37;48.27;100423.16;5053901;28;20469;-38
2022/02/24 10:41:01;;;;;;;3.42;2.42;;;;;;;9.19;48.57;100412.88;5053852;28;20096;-38
2022/02/24 10:43:30;;;;;;;5.90;2.53;;;;;;;9.52;47.85;100427.69;5053266;28;20029;-38
2022/02/24 10:46:08;;;;;;;3.67;2.50;;;;;;;9.92;46.52;100417.69;5053873;28;20021;-38
2022/02/24 10:48:50;;;;;;;6.25;3.40;;;;;;;9.56;47.65;100413.88;5053823;28;20094;-38
2022/02/24 10:51:25;;;;;;;5.53;2.80;;;;;;;9.43;48.77;100415.50;5053447;28;20104;-38
2022/02/24 10:54:01;;;;;;;3.67;2.45;;;;;;;9.08;48.95;100409.78;5053040;28;20035;-37
2022/02/24 10:56:26;;;;;;;4.90;2.20;;;;;;;8.90;49.21;100404.78;5053411;28;20079;-37
2022/02/24 10:58:52;;;;;;;3.92;2.38;;;;;;;9.16;48.83;100410.56;5053564;28;20029;-37
2022/02/24 11:01:18;;;;;;;5.40;2.67;;;;;;;9.50;47.90;100409.28;5053965;28;20506;-37
2022/02/24 11:04:01;;;;;;;3.58;2.72;;;;;;;9.15;48.86;100403.56;5053390;28;20034;-37
2022/02/24 11:06:28;;;;;;;3.30;2.50;;;;;;;8.87;49.20;100405.09;5053001;28;20021;-38
2022/02/24 11:08:55;;;;;;;4.25;2.45;;;;;;;9.08;48.71;100405.31;5053021;28;20025;-37
2022/02/24 11:11:28;;;;;;;5.68;2.67;;;;;;;8.97;49.82;100406.53;5053123;28;20028;-37
2022/02/24 11:13:55;;;;;;;5.35;2.65;;;;;;;9.84;47.35;100410.59;5053358;28;20029;-38
2022/02/24 11:16:21;;;;;;;3.67;2.50;;;;;;;10.19;46.05;100405.56;5053208;28;20501;-37
2022/02/24 11:18:46;;;;;;;5.00;2.58;;;;;;;9.74;46.82;100402.88;5052838;28;20097;-38
2022/02/24 11:21:13;;;;;;;5.45;2.60;;;;;;;9.32;48.46;100406.94;5035379;28;20551;-38
2022/02/24 11:23:40;;;;;;;4.15;2.50;;;;;;;9.18;48.07;100402.41;5072663;28;20528;-37
2022/02/24 11:26:09;;;;;;;4.07;2.60;;;;;;;9.18;47.91;100397.91;5072038;28;20016;-38